createdAt,value
2023-01-15T00:02:34.423Z,66.61
2023-01-15T00:05:08.761Z,66.74
2023-01-15T00:07:41.267Z,66.74
2023-01-15T00:10:17.280Z,66.86
2023-01-15T00:12:52.016Z,66.47
2023-01-15T00:15:22.832Z,66.28
2023-01-15T00:17:55.270Z,66.46
2023-01-15T00:20:27.898Z,66.20
2023-01-15T00:23:00.250Z,66.26
2023-01-15T00:25:50.235Z,66.35
2023-01-15T00:28:22.744Z,66.41
2023-01-15T00:30:55.459Z,66.60
2023-01-15T00:33:28.445Z,66.58
2023-01-15T00:36:00.968Z,66.54
2023-01-15T00:38:33.414Z,66.37
2023-01-15T00:41:06.112Z,66.42
2023-01-15T00:43:39.778Z,66.40
2023-01-15T00:46:12.399Z,66.12
2023-01-15T00:48:44.903Z,66.10
2023-01-15T00:51:20.185Z,66.23
2023-01-15T00:53:52.732Z,66.25
2023-01-15T00:56:25.271Z,66.48
2023-01-15T00:59:00.388Z,67.11
2023-01-15T01:01:33.435Z,66.83
2023-01-15T01:04:06.284Z,66.43
2023-01-15T01:06:40.588Z,66.45
2023-01-15T01:09:16.205Z,66.28
2023-01-15T01:11:50.048Z,66.29
2023-01-15T01:14:22.525Z,66.34
2023-01-15T01:16:55.143Z,65.83
2023-01-15T01:19:27.958Z,65.60
2023-01-15T01:22:02.986Z,65.84
2023-01-15T01:24:36.775Z,65.99
2023-01-15T01:27:09.453Z,65.84
2023-01-15T01:29:42.127Z,66.02
2023-01-15T01:32:15.182Z,65.71
2023-01-15T01:34:47.692Z,65.91
2023-01-15T01:37:20.352Z,66.05
2023-01-15T01:39:52.696Z,65.86
2023-01-15T01:42:26.089Z,65.61
2023-01-15T01:45:13.753Z,65.89
2023-01-15T01:47:47.816Z,66.18
2023-01-15T01:50:22.539Z,66.47
2023-01-15T01:52:59.413Z,66.17
2023-01-15T01:55:34.961Z,66.09
2023-01-15T01:58:10.980Z,65.71
2023-01-15T02:00:47.520Z,66.11
2023-01-15T02:03:23.471Z,66.03
2023-01-15T02:08:57.755Z,66.39
2023-01-15T02:11:31.699Z,66.10
2023-01-15T02:14:16.726Z,66.35
2023-01-15T02:16:54.059Z,66.66
2023-01-15T02:19:41.603Z,66.82
2023-01-15T02:22:25.297Z,67.81
2023-01-15T02:25:09.568Z,68.38
2023-01-15T02:27:47.640Z,68.34
2023-01-15T02:30:24.836Z,68.16
2023-01-15T02:33:06.212Z,68.56
2023-01-15T02:35:43.751Z,68.53
2023-01-15T02:38:22.736Z,68.27
2023-01-15T02:41:01.637Z,67.79
2023-01-15T02:43:38.935Z,67.14
2023-01-15T02:46:12.511Z,66.87
2023-01-15T02:48:51.572Z,66.53
2023-01-15T02:51:27.273Z,66.96
2023-01-15T02:54:05.115Z,67.24
2023-01-15T02:56:41.651Z,67.29
2023-01-15T02:59:18.753Z,67.46
2023-01-15T03:01:57.342Z,66.99
2023-01-15T03:04:34.318Z,67.11
2023-01-15T03:07:13.455Z,67.26
2023-01-15T03:09:47.035Z,67.85
2023-01-15T03:12:25.821Z,67.61
2023-01-15T03:15:10.733Z,67.62
2023-01-15T03:17:50.106Z,67.83
2023-01-15T03:20:26.284Z,67.96
2023-01-15T03:23:09.168Z,68.54
2023-01-15T03:25:48.346Z,68.09
2023-01-15T03:28:25.340Z,67.90
2023-01-15T03:30:59.752Z,67.73
2023-01-15T03:33:34.775Z,68.12
2023-01-15T03:36:08.727Z,67.75
2023-01-15T03:38:50.848Z,67.08
2023-01-15T03:41:46.196Z,67.12
2023-01-15T03:44:28.558Z,67.22
2023-01-15T03:47:21.506Z,67.48
2023-01-15T03:50:04.723Z,67.60
2023-01-15T03:52:53.019Z,67.57
2023-01-15T03:55:34.223Z,67.84
2023-01-15T03:58:14.654Z,67.97
2023-01-15T04:00:51.595Z,67.73
2023-01-15T04:03:27.318Z,67.68
2023-01-15T04:06:01.769Z,67.76
2023-01-15T04:08:39.012Z,67.69
2023-01-15T04:11:12.059Z,67.85
2023-01-15T04:13:51.750Z,67.71
2023-01-15T04:16:50.196Z,67.93
2023-01-15T04:19:23.166Z,68.78
2023-01-15T04:22:04.931Z,69.22
2023-01-15T04:24:40.934Z,69.56
2023-01-15T04:27:15.191Z,69.76
2023-01-15T04:29:48.099Z,70.62
2023-01-15T04:32:20.560Z,71.91
2023-01-15T04:34:54.181Z,73.01
2023-01-15T04:37:26.549Z,73.80
2023-01-15T04:40:00.651Z,74.48
2023-01-15T04:42:50.748Z,74.59
2023-01-15T04:45:23.246Z,75.27
2023-01-15T04:47:55.767Z,75.61
2023-01-15T04:50:28.173Z,76.54
2023-01-15T04:53:00.643Z,77.39
2023-01-15T04:55:33.831Z,77.28
2023-01-15T04:58:06.382Z,78.14
2023-01-15T05:00:38.794Z,77.83
2023-01-15T05:03:11.280Z,78.50
2023-01-15T05:05:43.637Z,79.63
2023-01-15T05:08:16.035Z,79.04
2023-01-15T05:10:49.771Z,79.15
2023-01-15T05:13:23.872Z,79.11
2023-01-15T05:15:56.321Z,80.60
2023-01-15T05:18:29.132Z,80.98
2023-01-15T05:21:01.451Z,81.68
2023-01-15T05:23:34.076Z,81.82
2023-01-15T05:26:09.509Z,82.36
2023-01-15T05:28:42.347Z,83.17
2023-01-15T05:31:17.477Z,83.29
2023-01-15T05:33:51.256Z,83.54
2023-01-15T05:36:25.660Z,82.51
2023-01-15T05:39:02.405Z,83.63
2023-01-15T05:41:50.977Z,85.57
2023-01-15T05:44:26.810Z,85.45
2023-01-15T05:47:02.594Z,84.99
2023-01-15T05:49:35.553Z,85.13
2023-01-15T05:52:09.280Z,85.37
2023-01-15T05:54:41.729Z,85.34
2023-01-15T05:57:14.910Z,85.62
2023-01-15T05:59:49.394Z,85.61
2023-01-15T06:02:21.845Z,86.61
2023-01-15T06:04:54.393Z,86.72
2023-01-15T06:07:26.857Z,86.48
2023-01-15T06:09:59.379Z,86.46
2023-01-15T06:12:33.596Z,87.18
2023-01-15T06:15:06.943Z,87.64
2023-01-15T06:17:39.778Z,87.43
2023-01-15T06:20:14.941Z,87.23
2023-01-15T06:22:50.006Z,86.70
2023-01-15T06:25:22.586Z,87.61
2023-01-15T06:27:55.081Z,87.93
2023-01-15T06:30:27.729Z,88.53
2023-01-15T06:33:00.127Z,88.28
2023-01-15T06:35:32.804Z,88.17
2023-01-15T06:38:05.216Z,88.18
2023-01-15T06:40:37.719Z,88.61
2023-01-15T06:43:28.707Z,88.91
2023-01-15T06:46:19.075Z,89.53
2023-01-15T06:48:51.828Z,90.03
2023-01-15T06:51:25.003Z,89.36
2023-01-15T06:53:57.499Z,89.12
2023-01-15T06:56:30.217Z,90.05
2023-01-15T06:59:02.971Z,90.23
2023-01-15T07:01:35.476Z,90.58
2023-01-15T07:04:08.096Z,91.00
2023-01-15T07:06:40.718Z,90.81
2023-01-15T07:09:13.186Z,90.55
2023-01-15T07:11:50.582Z,89.90
2023-01-15T07:14:25.323Z,88.92
2023-01-15T07:16:56.925Z,88.97
2023-01-15T07:19:29.590Z,89.57
2023-01-15T07:22:03.713Z,90.30
2023-01-15T07:24:36.400Z,90.45
2023-01-15T07:27:09.201Z,90.48
2023-01-15T07:29:41.568Z,91.11
2023-01-15T07:32:14.770Z,90.86
2023-01-15T07:34:47.552Z,90.71
2023-01-15T07:37:20.346Z,90.64
2023-01-15T07:39:52.646Z,90.81
2023-01-15T07:42:42.426Z,91.07
2023-01-15T07:45:32.929Z,90.77
2023-01-15T07:48:24.019Z,90.54
2023-01-15T07:50:56.426Z,91.07
2023-01-15T07:53:28.928Z,91.68
2023-01-15T07:56:01.389Z,92.12
2023-01-15T07:58:34.069Z,92.31
2023-01-15T08:01:06.607Z,91.55
2023-01-15T08:03:39.310Z,91.79
2023-01-15T08:06:11.904Z,92.42
2023-01-15T08:08:44.349Z,92.58
2023-01-15T08:11:34.326Z,92.48
2023-01-15T08:14:24.635Z,92.85
2023-01-15T08:16:57.136Z,92.86
2023-01-15T08:19:30.878Z,92.73
2023-01-15T08:22:03.328Z,92.91
2023-01-15T08:24:35.765Z,94.09
2023-01-15T08:27:08.284Z,94.04
2023-01-15T08:29:40.841Z,93.31
2023-01-15T08:32:13.479Z,92.80
2023-01-15T08:34:45.959Z,92.71
2023-01-15T08:37:18.379Z,92.82
2023-01-15T08:39:53.200Z,93.15
2023-01-15T08:42:24.087Z,92.46
2023-01-15T08:44:56.594Z,92.47
2023-01-15T08:47:29.318Z,92.47
2023-01-15T08:50:02.128Z,93.15
2023-01-15T08:52:34.798Z,92.78
2023-01-15T08:55:08.815Z,92.66
2023-01-15T08:57:41.312Z,92.10
2023-01-15T09:00:17.692Z,92.11
2023-01-15T09:02:50.494Z,92.04
2023-01-15T09:05:23.279Z,91.85
2023-01-15T09:07:55.881Z,91.85
2023-01-15T09:10:28.462Z,91.41
2023-01-15T09:13:03.045Z,91.86
2023-01-15T09:15:36.350Z,92.12
2023-01-15T09:18:10.745Z,91.93
2023-01-15T09:20:43.714Z,91.81
2023-01-15T09:23:16.323Z,92.53
2023-01-15T09:26:00.127Z,92.97
2023-01-15T09:28:32.930Z,89.40
2023-01-15T09:31:05.732Z,86.33
2023-01-15T09:33:38.138Z,84.63
2023-01-15T09:36:18.148Z,83.99
2023-01-15T09:38:51.872Z,83.89
2023-01-15T09:41:57.899Z,83.90
2023-01-15T09:44:53.271Z,83.81
2023-01-15T09:47:28.200Z,83.58
2023-01-15T09:50:17.287Z,83.65
2023-01-15T09:53:30.047Z,83.92
2023-01-15T09:56:04.950Z,83.58
2023-01-15T09:58:37.845Z,82.92
2023-01-15T10:01:18.313Z,82.90
2023-01-15T10:03:55.684Z,83.23
2023-01-15T10:06:30.114Z,83.43
2023-01-15T10:09:12.352Z,82.86
2023-01-15T10:12:13.534Z,82.02
2023-01-15T10:14:56.511Z,81.81
2023-01-15T10:17:48.795Z,81.03
2023-01-15T10:20:50.311Z,80.73
2023-01-15T10:24:02.641Z,80.86
2023-01-15T10:26:40.739Z,80.86
2023-01-15T10:29:26.112Z,79.75
2023-01-15T10:33:07.839Z,79.36
2023-01-15T10:35:43.446Z,79.16
2023-01-15T10:38:24.764Z,79.05
2023-01-15T10:41:25.541Z,79.00
2023-01-15T10:44:23.820Z,79.02
2023-01-15T10:47:38.854Z,78.89
2023-01-15T10:50:21.139Z,78.17
2023-01-15T10:53:02.789Z,78.38
2023-01-15T10:55:38.499Z,78.69
2023-01-15T10:58:39.319Z,78.82
2023-01-15T11:01:19.670Z,79.02
2023-01-15T11:04:12.586Z,79.26
2023-01-15T11:06:51.843Z,79.36
2023-01-15T11:09:33.699Z,79.36
2023-01-15T11:12:41.427Z,79.05
2023-01-15T11:15:43.575Z,79.03
2023-01-15T11:18:44.294Z,78.32
2023-01-15T11:21:29.353Z,77.40
2023-01-15T11:24:01.128Z,77.65
2023-01-15T11:26:35.665Z,76.43
2023-01-15T11:29:30.881Z,76.24
2023-01-15T11:32:30.406Z,76.45
2023-01-15T11:35:05.675Z,76.20
2023-01-15T11:37:38.307Z,76.82
2023-01-15T11:40:20.500Z,78.05
2023-01-15T11:43:11.296Z,78.73
2023-01-15T11:46:09.917Z,78.42
2023-01-15T11:49:07.225Z,78.04
2023-01-15T11:51:48.702Z,78.60
2023-01-15T11:54:29.585Z,78.64
2023-01-15T11:57:02.463Z,79.01
2023-01-15T11:59:41.416Z,80.38
2023-01-15T12:02:37.197Z,80.22
2023-01-15T12:05:41.912Z,80.23
2023-01-15T12:08:42.702Z,79.43
2023-01-15T12:11:29.206Z,78.59
2023-01-15T12:14:30.111Z,78.54
2023-01-15T12:17:09.271Z,78.62
2023-01-15T12:19:51.857Z,78.35
2023-01-15T12:22:37.919Z,78.36
2023-01-15T12:25:34.512Z,78.53
2023-01-15T12:28:13.365Z,79.10
2023-01-15T12:30:54.976Z,78.97
2023-01-15T12:33:42.154Z,78.99
2023-01-15T12:36:20.339Z,78.97
2023-01-15T12:38:58.762Z,79.55
2023-01-15T12:41:48.782Z,79.45
2023-01-15T12:44:46.241Z,78.60
2023-01-15T12:47:23.919Z,78.79
2023-01-15T12:50:08.266Z,78.45
2023-01-15T12:52:45.042Z,78.67
2023-01-15T12:55:21.117Z,78.31
2023-01-15T12:57:56.400Z,77.66
2023-01-15T13:00:34.335Z,77.01
2023-01-15T13:03:20.783Z,77.06
2023-01-15T13:05:58.343Z,77.65
2023-01-15T13:08:36.681Z,76.85
2023-01-15T13:11:11.554Z,76.73
2023-01-15T13:13:58.116Z,76.80
2023-01-15T13:16:42.959Z,76.98
2023-01-15T13:19:33.859Z,76.87
2023-01-15T13:22:12.236Z,76.74
2023-01-15T13:25:19.502Z,76.87
2023-01-15T13:28:05.526Z,76.91
2023-01-15T13:30:54.176Z,76.67
2023-01-15T13:33:33.682Z,76.56
2023-01-15T13:36:13.325Z,76.32
2023-01-15T13:38:50.467Z,76.35
2023-01-15T13:41:41.432Z,76.60
2023-01-15T13:44:22.905Z,76.63
2023-01-15T13:47:04.505Z,76.68
2023-01-15T13:49:41.606Z,76.43
2023-01-15T13:52:27.698Z,76.59
2023-01-15T13:55:07.418Z,75.68
2023-01-15T13:58:06.822Z,75.71
2023-01-15T14:00:40.716Z,76.13
2023-01-15T14:06:17.418Z,76.04
2023-01-15T14:08:52.370Z,75.92
2023-01-15T14:11:40.711Z,76.00
2023-01-15T14:14:44.161Z,76.52
2023-01-15T14:17:48.360Z,76.46
2023-01-15T14:20:44.494Z,76.13
2023-01-15T14:23:46.145Z,76.29
2023-01-15T14:26:41.299Z,76.91
2023-01-15T14:29:53.528Z,76.39
2023-01-15T14:33:12.064Z,76.52
2023-01-15T14:36:27.848Z,76.98
2023-01-15T14:39:28.665Z,76.47
2023-01-15T14:42:26.174Z,76.58
2023-01-15T14:45:18.727Z,77.38
2023-01-15T14:47:53.320Z,76.91
2023-01-15T14:50:34.609Z,76.33
2023-01-15T14:53:41.361Z,76.59
2023-01-15T14:56:36.400Z,76.90
2023-01-15T14:59:18.141Z,76.82
2023-01-15T15:01:57.126Z,76.92
2023-01-15T15:04:38.794Z,76.75
2023-01-15T15:07:18.269Z,76.65
2023-01-15T15:09:57.862Z,76.78
2023-01-15T15:12:40.288Z,77.10
2023-01-15T15:15:20.373Z,77.12
2023-01-15T15:18:02.846Z,76.61
2023-01-15T15:20:47.945Z,76.60
2023-01-15T15:23:26.770Z,77.28
2023-01-15T15:26:02.200Z,76.99
2023-01-15T15:28:35.598Z,76.82
2023-01-15T15:31:10.918Z,77.29
2023-01-15T15:33:44.643Z,77.76
2023-01-15T15:36:17.766Z,77.18
2023-01-15T15:38:58.022Z,76.74
2023-01-15T15:41:54.245Z,76.64
2023-01-15T15:44:53.343Z,76.60
2023-01-15T15:47:45.705Z,76.62
2023-01-15T15:50:26.888Z,76.77
2023-01-15T15:53:04.815Z,76.62
2023-01-15T15:55:42.769Z,76.89
2023-01-15T15:58:23.912Z,76.99
2023-01-15T16:00:57.963Z,76.44
2023-01-15T16:03:33.620Z,76.49
2023-01-15T16:06:10.473Z,76.71
2023-01-15T16:08:53.023Z,76.57
2023-01-15T16:11:28.212Z,76.96
2023-01-15T16:14:05.315Z,76.87
2023-01-15T16:16:40.109Z,76.69
2023-01-15T16:19:18.870Z,77.21
2023-01-15T16:21:53.202Z,77.53
2023-01-15T16:24:31.485Z,78.05
2023-01-15T16:27:09.499Z,77.74
2023-01-15T16:29:49.654Z,77.17
2023-01-15T16:32:29.017Z,77.42
2023-01-15T16:35:09.886Z,77.97
2023-01-15T16:37:43.279Z,77.91
2023-01-15T16:40:30.042Z,78.50
2023-01-15T16:43:12.974Z,78.94
2023-01-15T16:46:03.293Z,78.31
2023-01-15T16:48:38.352Z,78.27
2023-01-15T16:51:34.879Z,79.09
2023-01-15T16:54:30.217Z,79.43
2023-01-15T16:57:05.399Z,79.25
2023-01-15T17:00:06.502Z,78.19
2023-01-15T17:02:47.460Z,77.98
2023-01-15T17:05:26.829Z,77.93
2023-01-15T17:08:00.089Z,78.73
2023-01-15T17:10:33.761Z,78.70
2023-01-15T17:13:06.693Z,78.91
2023-01-15T17:15:44.286Z,78.74
2023-01-15T17:18:28.603Z,78.20
2023-01-15T17:21:02.601Z,78.02
2023-01-15T17:23:43.000Z,77.39
2023-01-15T17:26:20.933Z,77.05
2023-01-15T17:28:53.720Z,76.52
2023-01-15T17:31:30.199Z,76.65
2023-01-15T17:34:04.983Z,76.69
2023-01-15T17:36:35.984Z,76.28
2023-01-15T17:39:13.087Z,76.12
2023-01-15T17:41:50.788Z,76.10
2023-01-15T17:44:30.548Z,75.94
2023-01-15T17:47:07.389Z,76.74
2023-01-15T17:50:08.829Z,76.96
2023-01-15T17:52:58.196Z,76.74
2023-01-15T17:56:00.408Z,76.47
2023-01-15T17:59:38.504Z,76.59
2023-01-15T18:02:57.176Z,76.98
2023-01-15T18:05:36.900Z,76.51
2023-01-15T18:08:11.450Z,76.03
2023-01-15T18:10:56.234Z,75.51
2023-01-15T18:13:32.978Z,75.96
2023-01-15T18:16:05.736Z,76.20
2023-01-15T18:18:57.127Z,76.08
2023-01-15T18:21:43.445Z,75.82
2023-01-15T18:24:18.005Z,76.55
2023-01-15T18:26:52.805Z,76.53
2023-01-15T18:29:25.478Z,76.81
2023-01-15T18:31:58.416Z,76.71
2023-01-15T18:34:31.187Z,76.40
2023-01-15T18:37:03.788Z,76.53
2023-01-15T18:39:37.708Z,76.62
2023-01-15T18:42:28.809Z,75.99
2023-01-15T18:45:18.996Z,75.50
2023-01-15T18:48:05.921Z,75.30
2023-01-15T18:50:38.787Z,75.75
2023-01-15T18:53:12.866Z,76.02
2023-01-15T18:55:45.507Z,75.98
2023-01-15T18:58:21.968Z,75.39
2023-01-15T19:01:11.391Z,75.79
2023-01-15T19:03:47.252Z,75.24
2023-01-15T19:06:20.209Z,75.12
2023-01-15T19:09:16.211Z,75.52
2023-01-15T19:11:48.954Z,75.09
2023-01-15T19:14:39.337Z,74.88
2023-01-15T19:17:34.625Z,75.04
2023-01-15T19:20:09.588Z,74.95
2023-01-15T19:22:57.941Z,74.52
2023-01-15T19:25:33.645Z,73.93
2023-01-15T19:28:06.488Z,73.76
2023-01-15T19:30:40.179Z,73.70
2023-01-15T19:33:12.809Z,73.81
2023-01-15T19:35:46.081Z,74.05
2023-01-15T19:38:18.650Z,73.87
2023-01-15T19:40:51.247Z,74.10
2023-01-15T19:43:41.731Z,74.74
2023-01-15T19:46:32.040Z,74.57
2023-01-15T19:49:36.970Z,74.09
2023-01-15T19:52:27.164Z,73.66
2023-01-15T19:55:00.579Z,73.65
2023-01-15T19:57:34.184Z,73.55
2023-01-15T20:00:08.874Z,73.68
2023-01-15T20:02:42.826Z,73.80
2023-01-15T20:05:17.794Z,74.08
2023-01-15T20:07:50.627Z,74.24
2023-01-15T20:10:25.553Z,73.45
2023-01-15T20:13:16.307Z,73.88
2023-01-15T20:15:49.591Z,73.18
2023-01-15T20:18:23.653Z,72.63
2023-01-15T20:20:58.846Z,72.38
2023-01-15T20:23:31.645Z,72.41
2023-01-15T20:26:10.666Z,71.45
2023-01-15T20:28:47.669Z,71.16
2023-01-15T20:31:21.083Z,71.10
2023-01-15T20:33:55.667Z,70.88
2023-01-15T20:36:29.240Z,70.15
2023-01-15T20:39:02.098Z,70.18
2023-01-15T20:41:52.364Z,70.12
2023-01-15T20:44:42.666Z,70.23
2023-01-15T20:47:29.201Z,70.20
2023-01-15T20:50:02.314Z,69.92
2023-01-15T20:52:36.026Z,69.84
2023-01-15T20:55:10.988Z,69.53
2023-01-15T20:57:44.895Z,69.38
2023-01-15T21:00:20.806Z,69.80
2023-01-15T21:02:58.031Z,70.22
2023-01-15T21:05:32.873Z,70.21
2023-01-15T21:08:06.134Z,70.32
2023-01-15T21:10:38.840Z,70.09
2023-01-15T21:13:13.089Z,69.47
2023-01-15T21:15:46.109Z,69.03
2023-01-15T21:18:19.043Z,68.79
2023-01-15T21:20:51.887Z,68.71
2023-01-15T21:23:25.760Z,68.51
2023-01-15T21:26:03.269Z,68.29
2023-01-15T21:28:36.225Z,68.54
2023-01-15T21:31:11.454Z,68.51
2023-01-15T21:33:44.124Z,68.78
2023-01-15T21:36:18.207Z,68.23
2023-01-15T21:38:54.991Z,68.51
2023-01-15T21:41:42.469Z,68.78
2023-01-15T21:44:36.065Z,68.65
2023-01-15T21:47:10.638Z,67.78
2023-01-15T21:49:44.290Z,67.82
2023-01-15T21:52:19.419Z,67.85
2023-01-15T21:54:52.672Z,67.74
2023-01-15T21:57:25.571Z,67.68
2023-01-15T21:59:58.160Z,68.12
2023-01-15T22:02:30.962Z,68.19
2023-01-15T22:05:06.001Z,67.68
2023-01-15T22:07:38.763Z,67.66
2023-01-15T22:10:12.508Z,67.92
2023-01-15T22:12:44.938Z,67.92
2023-01-15T22:15:17.800Z,67.87
2023-01-15T22:17:53.863Z,67.94
2023-01-15T22:20:26.445Z,68.33
2023-01-15T22:22:59.094Z,68.11
2023-01-15T22:25:31.847Z,67.33
2023-01-15T22:28:04.472Z,67.31
2023-01-15T22:30:39.346Z,67.60
2023-01-15T22:33:12.159Z,67.47
2023-01-15T22:35:44.590Z,67.59
2023-01-15T22:38:16.984Z,66.94
2023-01-15T22:40:49.408Z,67.01
2023-01-15T22:43:21.796Z,67.13
2023-01-15T22:45:54.307Z,66.98
2023-01-15T22:48:27.033Z,66.61
2023-01-15T22:51:00.337Z,67.03
2023-01-15T22:53:32.854Z,66.84
2023-01-15T22:56:05.902Z,66.74
2023-01-15T22:58:42.595Z,66.98
2023-01-15T23:01:15.788Z,66.16
2023-01-15T23:03:48.386Z,65.82
2023-01-15T23:06:24.258Z,65.69
2023-01-15T23:09:00.620Z,65.93
2023-01-15T23:11:33.239Z,66.83
2023-01-15T23:14:05.758Z,66.23
2023-01-15T23:16:38.399Z,66.02
2023-01-15T23:19:12.188Z,66.18
2023-01-15T23:21:44.885Z,66.54
2023-01-15T23:24:18.649Z,65.78
2023-01-15T23:26:51.406Z,65.54
2023-01-15T23:29:24.950Z,65.73
2023-01-15T23:31:57.522Z,65.97
2023-01-15T23:34:30.201Z,65.62
2023-01-15T23:37:05.304Z,65.68
2023-01-15T23:39:37.713Z,66.15
2023-01-15T23:42:29.284Z,66.01
2023-01-15T23:45:19.473Z,65.59
2023-01-15T23:47:52.134Z,65.63
2023-01-15T23:50:25.003Z,65.37
2023-01-15T23:52:58.071Z,65.20
2023-01-15T23:55:30.882Z,65.49
2023-01-15T23:58:03.557Z,65.37
